createdAt,value
2023-02-21T00:01:48.883Z,56.7
2023-02-21T00:03:53.410Z,57.9
2023-02-21T00:05:55.262Z,52.5
2023-02-21T00:10:01.457Z,56.3
2023-02-21T00:12:03.153Z,71.7
2023-02-21T00:14:04.877Z,52
2023-02-21T00:16:09.429Z,55.3
2023-02-21T00:18:11.093Z,49.4
2023-02-21T00:20:12.808Z,51.8
2023-02-21T00:22:17.303Z,51
2023-02-21T00:24:18.997Z,47.9
2023-02-21T00:26:20.824Z,37.2
2023-02-21T00:33:33.976Z,47.1
2023-02-21T00:37:40.158Z,48.5
2023-02-21T00:39:41.977Z,52.5
2023-02-21T00:43:48.271Z,52.5
2023-02-21T00:45:50.143Z,48.6
2023-02-21T00:47:51.882Z,59.9
2023-02-21T00:51:58.067Z,42.7
2023-02-21T00:53:59.779Z,48.2
2023-02-21T00:56:04.168Z,47.1
2023-02-21T00:58:05.869Z,52.6
2023-02-21T01:00:07.618Z,59.2
2023-02-21T01:06:15.467Z,41.4
2023-02-21T01:08:19.816Z,46.6
2023-02-21T01:10:21.566Z,56.8
2023-02-21T01:12:23.396Z,47.2
2023-02-21T01:19:36.560Z,48.3
2023-02-21T01:21:38.383Z,44.2
2023-02-21T01:23:42.848Z,51.2
2023-02-21T01:25:44.476Z,40.8
2023-02-21T01:27:46.211Z,47
2023-02-21T01:29:50.610Z,44
2023-02-21T01:35:58.622Z,58.3
2023-02-21T01:38:00.465Z,49.3
2023-02-21T01:45:10.825Z,41.4
2023-02-21T01:51:18.741Z,40.2
2023-02-21T01:53:20.462Z,44.4
2023-02-21T01:55:22.288Z,53.7
2023-02-21T01:57:26.783Z,52
2023-02-21T01:59:28.495Z,50.4
2023-02-21T02:01:30.335Z,51.8
2023-02-21T02:03:34.798Z,40.7
2023-02-21T02:05:36.529Z,61.9
2023-02-21T02:13:47.779Z,58.3
2023-02-21T02:15:52.187Z,45.2
2023-02-21T02:28:08.325Z,46.2
2023-02-21T02:30:10.198Z,58.3
2023-02-21T02:32:11.976Z,59.6
2023-02-21T02:34:16.462Z,62.6
2023-02-21T02:48:34.480Z,48
2023-02-21T02:50:36.328Z,65.3
2023-02-21T02:52:40.783Z,54.1
2023-02-21T02:54:42.631Z,69.1
2023-02-21T02:56:44.391Z,69.2
2023-02-21T02:58:48.926Z,74.3
2023-02-21T03:00:50.689Z,57.3
2023-02-21T03:02:52.404Z,68.2
2023-02-21T03:04:56.780Z,86.7
2023-02-21T03:06:58.523Z,50.4
2023-02-21T03:09:00.194Z,69.7
2023-02-21T03:11:04.584Z,48.7
2023-02-21T03:13:06.324Z,77.9
2023-02-21T03:15:08.041Z,63.8
2023-02-21T03:17:12.419Z,47.4
2023-02-21T03:21:16.066Z,60.7
2023-02-21T03:26:26.062Z,58.6
2023-02-21T03:28:27.886Z,56.9
2023-02-21T03:30:29.761Z,57.8
2023-02-21T03:32:34.161Z,68
2023-02-21T03:34:35.957Z,68.2
2023-02-21T03:36:37.787Z,66
2023-02-21T03:38:42.259Z,76.4
2023-02-21T03:42:45.742Z,65.3
2023-02-21T03:44:50.128Z,67.6
2023-02-21T03:46:51.936Z,76.2
2023-02-21T03:48:53.729Z,49.1
2023-02-21T03:56:06.837Z,62.4
2023-02-21T03:58:08.614Z,71.3
2023-02-21T04:00:13.003Z,64.9
2023-02-21T04:02:14.782Z,62.1
2023-02-21T04:04:16.454Z,73.3
2023-02-21T04:06:20.828Z,67.9
2023-02-21T04:08:22.571Z,76
2023-02-21T04:10:24.278Z,62.3
2023-02-21T04:12:28.669Z,80.5
2023-02-21T04:14:30.387Z,72.2
2023-02-21T04:16:32.139Z,75.5
2023-02-21T04:18:37.809Z,72.3
2023-02-21T04:20:38.228Z,81.8
2023-02-21T04:22:40.047Z,62.7
2023-02-21T04:28:48.050Z,77.8
2023-02-21T04:43:56.175Z,78.8
2023-02-21T04:45:57.969Z,87.7
2023-02-21T04:47:59.613Z,83.5
2023-02-21T04:50:04.099Z,103.7
2023-02-21T04:52:05.804Z,106.3
2023-02-21T04:58:13.733Z,92.8
2023-02-21T05:00:15.548Z,88.5
2023-02-21T05:06:23.638Z,88.7
2023-02-21T05:08:28.803Z,75.6
2023-02-21T05:10:44.573Z,85.7
2023-02-21T05:12:31.479Z,86.2
2023-02-21T05:18:39.279Z,83.7
2023-02-21T05:20:43.663Z,94.1
2023-02-21T05:22:45.404Z,108.7
2023-02-21T05:30:55.024Z,81.1
2023-02-21T05:32:59.269Z,101.8
2023-02-21T05:37:02.707Z,101.9
2023-02-21T05:39:07.104Z,93.7
2023-02-21T05:43:10.484Z,130
2023-02-21T05:45:14.869Z,109.2
2023-02-21T05:49:18.299Z,114.3
2023-02-21T06:10:34.403Z,128.5
2023-02-21T06:12:36.185Z,127.4
2023-02-21T06:14:37.996Z,103.1
2023-02-21T06:27:59.157Z,109.5
2023-02-21T06:30:00.883Z,107
2023-02-21T06:35:14.494Z,106.4
2023-02-21T06:37:16.282Z,125.4
2023-02-21T06:41:22.409Z,118.4
2023-02-21T06:43:24.107Z,114.6
2023-02-21T06:45:25.831Z,123.9
2023-02-21T06:47:30.296Z,112.4
2023-02-21T06:49:32.137Z,124.9
2023-02-21T06:51:33.924Z,115.5
2023-02-21T06:53:38.405Z,124.7
2023-02-21T06:55:40.196Z,109.7
2023-02-21T06:57:41.984Z,121.6
2023-02-21T06:59:46.508Z,131.1
2023-02-21T07:01:48.346Z,116.6
2023-02-21T07:03:50.109Z,114
2023-02-21T07:05:54.615Z,125.7
2023-02-21T07:07:56.382Z,154.8
2023-02-21T07:09:58.176Z,127.4
2023-02-21T07:12:02.662Z,107.4
2023-02-21T07:14:04.360Z,121.6
2023-02-21T07:16:06.205Z,125.8
2023-02-21T07:18:10.651Z,148.9
2023-02-21T07:22:14.219Z,147.3
2023-02-21T07:28:22.213Z,156.4
2023-02-21T07:30:26.753Z,126.8
2023-02-21T07:34:30.285Z,142.5
2023-02-21T07:43:37.632Z,126.1
2023-02-21T07:45:42.119Z,104.9
2023-02-21T07:49:45.520Z,120
2023-02-21T07:56:58.488Z,128.7
2023-02-21T07:59:00.288Z,117.6
2023-02-21T08:05:08.394Z,135.1
2023-02-21T08:11:16.451Z,128.6
2023-02-21T08:15:22.294Z,127.3
2023-02-21T08:17:24.009Z,119.2
2023-02-21T08:19:28.376Z,129.4
2023-02-21T08:21:30.069Z,131.4
2023-02-21T08:23:31.889Z,113.6
2023-02-21T08:25:36.365Z,119
2023-02-21T08:29:39.942Z,145.7
2023-02-21T08:35:48.030Z,117.3
2023-02-21T08:44:47.960Z,124.5
2023-02-21T08:48:51.594Z,119.6
2023-02-21T08:51:02.187Z,123.9
2023-02-21T08:53:03.880Z,117.4
2023-02-21T08:55:05.675Z,135.3
2023-02-21T08:57:10.170Z,116.6
2023-02-21T09:03:18.242Z,117.7
2023-02-21T09:11:28.149Z,133.2
2023-02-21T09:13:29.932Z,114.4
2023-02-21T09:19:38.000Z,129.8
2023-02-21T09:26:51.106Z,103.5
2023-02-21T09:28:52.932Z,130.5
2023-02-21T09:30:57.380Z,105.7
2023-02-21T09:35:00.909Z,124
2023-02-21T09:41:08.661Z,120.8
2023-02-21T09:47:16.676Z,124.6
2023-02-21T09:52:30.247Z,120.3
2023-02-21T09:54:32.073Z,125.3
2023-02-21T09:56:33.865Z,126.3
2023-02-21T09:58:38.365Z,134
2023-02-21T10:02:41.948Z,123.3
2023-02-21T10:08:50.047Z,135.4
2023-02-21T10:10:54.563Z,116.2
2023-02-21T10:14:58.170Z,121.2
2023-02-21T10:17:02.671Z,125.6
2023-02-21T10:19:04.485Z,111.2
2023-02-21T10:21:06.353Z,135.8
2023-02-21T10:32:08.052Z,104.9
2023-02-21T10:34:09.704Z,107.4
2023-02-21T10:45:51.873Z,96.4
2023-02-21T10:49:55.133Z,72.4
2023-02-21T11:01:09.906Z,76.9
2023-02-21T11:07:17.771Z,72.2
2023-02-21T11:09:19.498Z,67.2
2023-02-21T11:15:27.341Z,74.4
2023-02-21T11:23:36.926Z,66.4
2023-02-21T11:25:41.400Z,75.4
2023-02-21T11:34:48.164Z,56.8
2023-02-21T11:38:51.637Z,71.9
2023-02-21T11:40:56.027Z,63.9
2023-02-21T11:42:57.742Z,72.7
2023-02-21T11:44:59.455Z,67.3
2023-02-21T11:47:03.877Z,70.4
2023-02-21T11:51:07.350Z,64.6
2023-02-21T11:53:11.826Z,58.6
2023-02-21T11:55:13.518Z,60
2023-02-21T11:57:15.235Z,69.6
2023-02-21T11:59:19.633Z,55.3
2023-02-21T12:01:21.366Z,55.3
2023-02-21T12:03:23.061Z,74.7
2023-02-21T12:05:27.626Z,61.3
2023-02-21T12:09:31.123Z,81.6
2023-02-21T12:13:37.252Z,71.3
2023-02-21T12:15:38.991Z,67.1
2023-02-21T12:23:51.364Z,62.9
2023-02-21T12:25:53.102Z,70.4
2023-02-21T12:43:12.716Z,70.1
2023-02-21T12:45:17.082Z,68.9
2023-02-21T12:47:18.828Z,60.2
2023-02-21T12:51:24.903Z,65.7
2023-02-21T12:53:26.625Z,70.9
2023-02-21T12:55:28.367Z,77.6
2023-02-21T12:57:32.744Z,69.5
2023-02-21T12:59:34.507Z,69
2023-02-21T13:01:36.363Z,68.9
2023-02-21T13:03:40.621Z,77
2023-02-21T13:05:42.364Z,63.5
2023-02-21T13:07:44.068Z,76.4
2023-02-21T13:09:48.458Z,77.1
2023-02-21T13:13:51.915Z,73.2
2023-02-21T13:17:58.038Z,66
2023-02-21T13:22:04.210Z,70.7
2023-02-21T13:24:05.939Z,77.3
2023-02-21T13:26:07.652Z,72.1
2023-02-21T13:28:12.082Z,74.6
2023-02-21T13:30:13.795Z,77
2023-02-21T13:32:15.733Z,60.7
2023-02-21T13:36:21.694Z,62.1
2023-02-21T13:38:23.397Z,70.4
2023-02-21T13:40:28.037Z,75.2
2023-02-21T13:44:31.246Z,55.8
2023-02-21T13:49:37.256Z,75.8
2023-02-21T13:51:38.948Z,71.9
2023-02-21T13:53:40.670Z,75.8
2023-02-21T13:55:45.051Z,62.2
2023-02-21T13:59:48.506Z,59.4
2023-02-21T14:01:59.031Z,50.3
2023-02-21T14:06:02.500Z,44.9
2023-02-21T14:10:08.627Z,60.1
2023-02-21T14:12:10.415Z,66.4
2023-02-21T14:16:16.825Z,52.6
2023-02-21T14:18:18.243Z,52.7
2023-02-21T14:29:33.343Z,37.6
2023-02-21T14:31:35.071Z,35.9
2023-02-21T14:33:36.753Z,42.4
2023-02-21T14:37:42.896Z,43.8
2023-02-21T14:39:44.648Z,35.2
2023-02-21T14:41:49.024Z,35.6
2023-02-21T14:43:50.776Z,46.4
2023-02-21T14:45:52.567Z,29.1
2023-02-21T14:57:11.618Z,25.9
2023-02-21T14:59:13.367Z,16.9
2023-02-21T15:01:15.484Z,24.9
2023-02-21T15:03:19.501Z,33
2023-02-21T15:05:21.254Z,23.7
2023-02-21T15:07:22.976Z,26.2
2023-02-21T15:09:27.377Z,31.7
2023-02-21T15:13:30.906Z,24
2023-02-21T15:15:35.259Z,24.8
2023-02-21T15:17:37.038Z,24
2023-02-21T15:19:38.726Z,20.6
2023-02-21T15:26:51.820Z,17.7
2023-02-21T15:32:59.652Z,19.9
2023-02-21T15:35:01.394Z,23.2
2023-02-21T15:37:05.879Z,24.7
2023-02-21T15:39:07.699Z,25.3
2023-02-21T15:41:09.517Z,23.8
2023-02-21T15:43:13.909Z,16.9
2023-02-21T15:47:17.360Z,11.3
2023-02-21T15:49:21.838Z,13
2023-02-21T15:53:25.260Z,8
2023-02-21T15:55:29.683Z,10.3
2023-02-21T15:57:31.371Z,9.5
2023-02-21T15:59:33.192Z,8.3
2023-02-21T16:01:37.631Z,9.9
2023-02-21T16:05:41.022Z,6.7
2023-02-21T16:07:46.238Z,8.6
2023-02-21T16:09:47.144Z,9.6
2023-02-21T16:13:53.627Z,9.3
2023-02-21T16:17:56.732Z,14.6
2023-02-21T16:20:01.237Z,14.9
2023-02-21T16:22:02.963Z,8.8
2023-02-21T16:24:04.668Z,11.6
2023-02-21T16:28:10.878Z,7.5
2023-02-21T16:30:12.607Z,11.1
2023-02-21T16:32:17.107Z,8.2
2023-02-21T16:36:20.540Z,15.9
2023-02-21T16:38:24.881Z,12.3
2023-02-21T16:40:26.605Z,10.4
2023-02-21T16:42:28.349Z,15.3
2023-02-21T16:46:34.459Z,10
2023-02-21T16:50:40.607Z,20.6
2023-02-21T16:52:42.318Z,15.8
2023-02-21T16:59:57.684Z,12.9
2023-02-21T17:04:01.079Z,10.9
2023-02-21T17:08:07.209Z,14.7
2023-02-21T17:10:08.971Z,18.7
2023-02-21T17:12:13.420Z,21.9
2023-02-21T17:14:15.082Z,17.9
2023-02-21T17:16:16.990Z,25.9
2023-02-21T17:18:21.459Z,27.1
2023-02-21T17:22:24.979Z,25.7
2023-02-21T17:24:29.469Z,27.8
2023-02-21T17:32:39.051Z,34.7
2023-02-21T17:34:40.677Z,23.6
2023-02-21T17:43:40.625Z,27.9
2023-02-21T17:47:44.079Z,27
2023-02-21T17:55:56.372Z,31.2
2023-02-21T17:57:58.035Z,25.6
2023-02-21T17:59:59.771Z,28
2023-02-21T18:02:04.242Z,22.6
2023-02-21T18:04:05.953Z,31.5
2023-02-21T18:06:07.674Z,31.8
2023-02-21T18:08:12.085Z,30.4
2023-02-21T18:10:13.813Z,28.4
2023-02-21T18:12:15.545Z,33.8
2023-02-21T18:18:23.573Z,30.3
2023-02-21T18:24:31.488Z,40.6
2023-02-21T18:31:44.474Z,40.9
2023-02-21T18:33:46.216Z,35.1
2023-02-21T18:35:50.725Z,34
2023-02-21T18:37:52.549Z,44.5
2023-02-21T18:39:54.242Z,36.9
2023-02-21T18:41:58.642Z,27.2
2023-02-21T18:44:00.609Z,41.3
2023-02-21T18:46:02.250Z,37
2023-02-21T18:48:06.736Z,44.5
2023-02-21T18:56:16.346Z,30.3
2023-02-21T18:58:18.099Z,39.4
2023-02-21T19:00:22.411Z,41.1
2023-02-21T19:04:25.828Z,34
2023-02-21T19:06:30.206Z,36.7
2023-02-21T19:08:31.898Z,35.2
2023-02-21T19:10:33.599Z,35.5
2023-02-21T19:12:37.966Z,38.6
2023-02-21T19:14:39.771Z,31.5
2023-02-21T19:16:41.636Z,40.4
2023-02-21T19:18:46.035Z,29.4
2023-02-21T19:22:49.648Z,32.6
2023-02-21T19:24:54.116Z,37.5
2023-02-21T19:26:55.980Z,30.3
2023-02-21T19:28:57.719Z,26.4
2023-02-21T19:34:12.032Z,25.9
2023-02-21T19:36:13.802Z,26.5
2023-02-21T19:38:15.606Z,31.3
2023-02-21T19:40:20.075Z,29.5
2023-02-21T19:42:21.814Z,43.7
2023-02-21T19:44:23.496Z,35.6
2023-02-21T19:51:36.353Z,33.5
2023-02-21T19:59:46.009Z,24.3
2023-02-21T20:03:52.210Z,29.8
2023-02-21T20:10:00.256Z,34.3
2023-02-21T20:14:06.529Z,23.5
2023-02-21T20:16:08.338Z,29.2
2023-02-21T20:18:10.155Z,26.5
2023-02-21T20:20:14.629Z,28.1
2023-02-21T20:22:16.440Z,24.7
2023-02-21T20:35:56.567Z,35.9
2023-02-21T20:37:58.357Z,30.5
2023-02-21T20:40:00.143Z,36.1
2023-02-21T20:44:06.436Z,34.5
2023-02-21T20:46:10.182Z,36.6
2023-02-21T21:00:03.495Z,36.8
2023-02-21T21:02:05.271Z,33.2
2023-02-21T21:07:15.468Z,47.5
2023-02-21T21:09:17.236Z,44.3
2023-02-21T21:11:19.323Z,46.5
2023-02-21T21:13:23.515Z,44.9
2023-02-21T21:15:25.284Z,41.1
2023-02-21T21:17:27.079Z,38.2
2023-02-21T21:19:31.554Z,53.6
2023-02-21T21:21:33.341Z,54.4
2023-02-21T21:23:35.141Z,55.5
2023-02-21T21:25:39.620Z,59.8
2023-02-21T21:27:41.389Z,50.7
2023-02-21T21:29:43.201Z,49.6
2023-02-21T21:31:47.715Z,40.6
2023-02-21T21:33:49.348Z,52.7
2023-02-21T21:35:51.141Z,46.8
2023-02-21T21:39:57.325Z,46
2023-02-21T21:41:59.090Z,42
2023-02-21T21:44:03.589Z,47
2023-02-21T21:46:05.437Z,46.5
2023-02-21T21:48:07.169Z,45.9
2023-02-21T21:50:11.634Z,40.7
2023-02-21T21:54:15.219Z,60.9
2023-02-21T21:56:19.702Z,60.8
2023-02-21T21:58:21.499Z,39.2
2023-02-21T22:00:23.304Z,46.4
2023-02-21T22:09:23.185Z,37.8
2023-02-21T22:11:25.005Z,52.1
2023-02-21T22:13:26.818Z,49
2023-02-21T22:15:31.274Z,49.5
2023-02-21T22:24:48.653Z,39.4
2023-02-21T22:26:50.443Z,56.5
2023-02-21T22:28:52.245Z,61
2023-02-21T22:30:56.698Z,44.4
2023-02-21T22:32:58.467Z,50.8
2023-02-21T22:35:00.265Z,46.2
2023-02-21T22:37:04.739Z,56.5
2023-02-21T22:53:24.250Z,40
2023-02-21T23:06:44.792Z,42.3
2023-02-21T23:08:46.573Z,42
2023-02-21T23:10:51.004Z,45.7
2023-02-21T23:14:54.783Z,36
2023-02-21T23:29:15.354Z,33
2023-02-21T23:31:17.308Z,32.5
2023-02-21T23:33:18.817Z,37.2
2023-02-21T23:35:23.309Z,34.4
2023-02-21T23:37:25.091Z,29.3
2023-02-21T23:39:26.876Z,31.5
2023-02-21T23:41:31.368Z,38.8
2023-02-21T23:43:33.178Z,37.9
2023-02-21T23:45:34.938Z,35.6
2023-02-21T23:47:39.430Z,30.3
2023-02-21T23:51:43.008Z,39.9
2023-02-21T23:56:58.238Z,31.9
2023-02-21T23:59:00.035Z,46.9
